createdAt,value
2022-11-04T00:02:08.097Z,8.59
2022-11-04T00:04:34.948Z,8.57
2022-11-04T00:07:01.684Z,8.55
2022-11-04T00:09:30.189Z,8.52
2022-11-04T00:12:15.651Z,8.50
2022-11-04T00:14:42.568Z,8.48
2022-11-04T00:17:24.539Z,8.49
2022-11-04T00:20:13.561Z,8.51
2022-11-04T00:22:59.851Z,8.52
2022-11-04T00:25:45.173Z,8.54
2022-11-04T00:28:34.078Z,8.56
2022-11-04T00:31:20.100Z,8.59
2022-11-04T00:33:48.717Z,8.63
2022-11-04T00:36:15.770Z,8.66
2022-11-04T00:38:42.556Z,8.70
2022-11-04T00:41:26.521Z,8.73
2022-11-04T00:43:54.737Z,8.74
2022-11-04T00:46:21.502Z,8.74
2022-11-04T00:48:48.273Z,8.74
2022-11-04T00:51:15.301Z,8.75
2022-11-04T00:53:42.070Z,8.75
2022-11-04T00:56:08.702Z,8.74
2022-11-04T00:58:35.482Z,8.73
2022-11-04T01:01:07.014Z,8.71
2022-11-04T01:03:33.777Z,8.70
2022-11-04T01:06:00.390Z,8.68
2022-11-04T01:08:27.083Z,8.66
2022-11-04T01:10:53.820Z,8.69
2022-11-04T01:13:20.689Z,8.69
2022-11-04T01:15:47.404Z,8.70
2022-11-04T01:18:14.010Z,8.72
2022-11-04T01:20:40.748Z,8.72
2022-11-04T01:23:07.392Z,8.73
2022-11-04T01:25:34.072Z,8.73
2022-11-04T01:28:01.010Z,8.74
2022-11-04T01:30:27.729Z,8.73
2022-11-04T01:32:54.455Z,8.71
2022-11-04T01:35:21.425Z,8.69
2022-11-04T01:37:48.124Z,8.68
2022-11-04T01:40:14.848Z,8.65
2022-11-04T01:42:41.506Z,8.62
2022-11-04T01:45:14.602Z,8.60
2022-11-04T01:47:47.715Z,8.57
2022-11-04T01:50:21.289Z,8.55
2022-11-04T01:53:08.205Z,8.54
2022-11-04T01:55:36.385Z,8.53
2022-11-04T01:58:05.758Z,8.52
2022-11-04T02:00:33.001Z,8.52
2022-11-04T02:03:09.450Z,8.51
2022-11-04T02:05:36.405Z,8.53
2022-11-04T02:08:03.966Z,8.54
2022-11-04T02:10:30.894Z,8.54
2022-11-04T02:12:58.710Z,8.54
2022-11-04T02:15:40.882Z,8.56
2022-11-04T02:18:20.987Z,8.58
2022-11-04T02:21:11.011Z,8.56
2022-11-04T02:24:01.740Z,8.55
2022-11-04T02:26:46.979Z,8.54
2022-11-04T02:29:38.326Z,8.53
2022-11-04T02:32:26.427Z,8.52
2022-11-04T02:34:59.671Z,8.50
2022-11-04T02:37:37.634Z,8.49
2022-11-04T02:40:16.409Z,8.50
2022-11-04T02:42:52.723Z,8.50
2022-11-04T02:45:22.482Z,8.52
2022-11-04T02:47:52.035Z,8.53
2022-11-04T02:50:25.867Z,8.55
2022-11-04T02:53:06.567Z,8.58
2022-11-04T02:55:36.659Z,8.61
2022-11-04T02:58:05.496Z,8.62
2022-11-04T03:00:32.205Z,8.61
2022-11-04T03:03:04.355Z,8.60
2022-11-04T03:05:33.946Z,8.58
2022-11-04T03:08:09.439Z,8.55
2022-11-04T03:10:38.587Z,8.53
2022-11-04T03:13:16.343Z,8.50
2022-11-04T03:15:54.225Z,8.48
2022-11-04T03:18:33.494Z,8.46
2022-11-04T03:21:02.350Z,8.43
2022-11-04T03:23:29.090Z,8.44
2022-11-04T03:25:58.273Z,8.41
2022-11-04T03:28:31.849Z,8.39
2022-11-04T03:30:59.580Z,8.38
2022-11-04T03:33:39.489Z,8.37
2022-11-04T03:36:08.749Z,8.38
2022-11-04T03:38:36.301Z,8.36
2022-11-04T03:41:03.615Z,8.34
2022-11-04T03:43:30.338Z,8.33
2022-11-04T03:45:57.022Z,8.35
2022-11-04T03:48:23.758Z,8.36
2022-11-04T03:50:51.228Z,8.34
2022-11-04T03:53:22.655Z,8.37
2022-11-04T03:56:20.551Z,8.37
2022-11-04T03:58:50.485Z,8.42
2022-11-04T04:01:26.513Z,8.39
2022-11-04T04:03:58.059Z,8.33
2022-11-04T04:06:30.183Z,8.31
2022-11-04T04:09:03.030Z,8.31
2022-11-04T04:11:41.266Z,8.29
2022-11-04T04:14:40.006Z,8.31
2022-11-04T04:17:20.651Z,8.32
2022-11-04T04:19:51.216Z,8.33
2022-11-04T04:22:23.249Z,8.33
2022-11-04T04:25:10.973Z,8.34
2022-11-04T04:27:37.692Z,8.34
2022-11-04T04:30:14.485Z,8.30
2022-11-04T04:33:03.225Z,8.30
2022-11-04T04:35:43.097Z,8.29
2022-11-04T04:38:44.189Z,8.30
2022-11-04T04:41:39.299Z,8.29
2022-11-04T04:44:49.057Z,8.26
2022-11-04T04:47:20.042Z,8.30
2022-11-04T04:49:53.849Z,8.30
2022-11-04T04:52:20.844Z,8.30
2022-11-04T04:54:47.597Z,8.30
2022-11-04T04:57:14.255Z,8.30
2022-11-04T04:59:40.997Z,8.30
2022-11-04T05:02:07.939Z,8.32
2022-11-04T05:04:34.735Z,8.34
2022-11-04T05:07:01.605Z,8.34
2022-11-04T05:09:28.326Z,8.31
2022-11-04T05:11:55.065Z,8.30
2022-11-04T05:14:21.719Z,8.31
2022-11-04T05:16:48.428Z,8.33
2022-11-04T05:19:15.190Z,8.32
2022-11-04T05:21:41.829Z,8.32
2022-11-04T05:24:08.611Z,8.32
2022-11-04T05:26:35.234Z,8.32
2022-11-04T05:29:02.045Z,8.33
2022-11-04T05:31:30.329Z,8.32
2022-11-04T05:33:58.952Z,8.31
2022-11-04T05:36:25.800Z,8.29
2022-11-04T05:38:53.134Z,8.30
2022-11-04T05:41:26.080Z,8.32
2022-11-04T05:43:57.232Z,8.29
2022-11-04T05:46:24.376Z,8.30
2022-11-04T05:48:51.123Z,8.30
2022-11-04T05:51:18.618Z,8.31
2022-11-04T05:53:45.330Z,8.32
2022-11-04T05:56:12.072Z,8.30
2022-11-04T05:58:38.704Z,8.26
2022-11-04T06:01:24.105Z,8.21
2022-11-04T06:03:51.817Z,8.18
2022-11-04T06:06:18.625Z,8.18
2022-11-04T06:08:45.532Z,8.11
2022-11-04T06:11:12.328Z,8.04
2022-11-04T06:13:39.042Z,7.98
2022-11-04T06:17:03.896Z,7.94
2022-11-04T06:19:30.765Z,7.90
2022-11-04T06:21:57.429Z,7.90
2022-11-04T06:24:24.213Z,7.86
2022-11-04T06:26:50.926Z,7.81
2022-11-04T06:29:17.667Z,7.76
2022-11-04T06:31:44.330Z,7.74
2022-11-04T06:34:11.560Z,7.73
2022-11-04T06:36:38.428Z,7.71
2022-11-04T06:39:06.446Z,7.70
2022-11-04T06:41:33.298Z,7.71
2022-11-04T06:44:00.026Z,7.74
2022-11-04T06:46:39.535Z,7.79
2022-11-04T06:49:07.216Z,7.86
2022-11-04T06:51:34.176Z,7.91
2022-11-04T06:54:00.984Z,7.92
2022-11-04T06:56:27.652Z,8.00
2022-11-04T06:58:55.013Z,8.03
2022-11-04T07:01:23.311Z,8.06
2022-11-04T07:03:54.521Z,8.09
2022-11-04T07:06:21.392Z,8.10
2022-11-04T07:08:48.931Z,8.09
2022-11-04T07:11:17.134Z,8.13
2022-11-04T07:13:43.868Z,8.18
2022-11-04T07:16:10.529Z,8.20
2022-11-04T07:18:37.316Z,8.24
2022-11-04T07:21:09.735Z,8.26
2022-11-04T07:23:36.845Z,8.29
2022-11-04T07:26:04.470Z,8.29
2022-11-04T07:28:31.220Z,8.41
2022-11-04T07:31:00.989Z,8.48
2022-11-04T07:33:27.894Z,8.54
2022-11-04T07:35:57.984Z,8.60
2022-11-04T07:38:25.254Z,8.65
2022-11-04T07:40:51.904Z,8.72
2022-11-04T07:43:18.646Z,8.76
2022-11-04T07:45:45.879Z,8.78
2022-11-04T07:48:12.643Z,8.82
2022-11-04T07:50:40.612Z,8.87
2022-11-04T07:53:08.062Z,8.90
2022-11-04T07:55:42.866Z,8.93
2022-11-04T07:58:10.725Z,8.96
2022-11-04T08:00:37.485Z,9.01
2022-11-04T08:03:04.135Z,9.07
2022-11-04T08:05:30.862Z,9.13
2022-11-04T08:07:57.953Z,9.17
2022-11-04T08:10:24.862Z,9.22
2022-11-04T08:12:52.393Z,9.26
2022-11-04T08:15:19.118Z,9.27
2022-11-04T08:17:45.733Z,9.32
2022-11-04T08:20:12.719Z,9.34
2022-11-04T08:22:39.441Z,9.35
2022-11-04T08:25:06.317Z,9.38
2022-11-04T08:27:33.172Z,9.41
2022-11-04T08:29:59.789Z,9.42
2022-11-04T08:32:26.752Z,9.42
2022-11-04T08:34:53.577Z,9.39
2022-11-04T08:37:20.320Z,9.38
2022-11-04T08:39:47.038Z,9.38
2022-11-04T08:42:13.753Z,9.37
2022-11-04T08:44:40.655Z,9.35
2022-11-04T08:47:07.357Z,9.38
2022-11-04T08:49:37.581Z,9.40
2022-11-04T08:52:04.451Z,9.42
2022-11-04T08:54:31.179Z,9.44
2022-11-04T08:56:58.203Z,9.46
2022-11-04T08:59:25.253Z,9.48
2022-11-04T09:01:52.160Z,9.46
2022-11-04T09:04:19.926Z,9.43
2022-11-04T09:06:46.777Z,9.44
2022-11-04T09:09:15.030Z,9.45
2022-11-04T09:11:42.421Z,9.44
2022-11-04T09:14:09.364Z,9.44
2022-11-04T09:16:36.475Z,9.44
2022-11-04T09:19:03.465Z,9.45
2022-11-04T09:21:30.177Z,9.45
2022-11-04T09:23:57.016Z,9.48
2022-11-04T09:26:24.119Z,9.51
2022-11-04T09:28:57.876Z,9.54
2022-11-04T09:31:26.059Z,9.55
2022-11-04T09:33:54.179Z,9.55
2022-11-04T09:36:20.904Z,9.56
2022-11-04T09:38:47.565Z,9.57
2022-11-04T09:41:32.635Z,9.58
2022-11-04T09:44:07.594Z,9.57
2022-11-04T09:46:34.287Z,9.56
2022-11-04T09:49:01.513Z,9.57
2022-11-04T09:51:52.557Z,9.56
2022-11-04T09:54:25.905Z,9.55
2022-11-04T09:56:53.234Z,9.54
2022-11-04T09:59:29.045Z,9.53
2022-11-04T10:02:22.623Z,9.52
2022-11-04T10:05:46.017Z,9.51
2022-11-04T10:08:39.143Z,9.51
2022-11-04T10:11:21.513Z,9.49
2022-11-04T10:14:12.543Z,9.46
2022-11-04T10:17:09.374Z,9.44
2022-11-04T10:19:52.108Z,9.40
2022-11-04T10:22:38.643Z,9.36
2022-11-04T10:25:15.648Z,9.33
2022-11-04T10:27:44.008Z,9.33
2022-11-04T10:30:23.780Z,9.34
2022-11-04T10:33:21.871Z,9.32
2022-11-04T10:35:50.844Z,9.33
2022-11-04T10:38:18.938Z,9.33
2022-11-04T10:40:51.086Z,9.32
2022-11-04T10:43:44.317Z,9.32
2022-11-04T10:46:23.403Z,9.33
2022-11-04T10:49:09.875Z,9.34
2022-11-04T10:51:36.617Z,9.36
2022-11-04T10:54:05.258Z,9.39
2022-11-04T10:56:34.206Z,9.39
2022-11-04T10:59:04.780Z,9.38
2022-11-04T11:01:33.551Z,9.40
2022-11-04T11:04:01.024Z,9.42
2022-11-04T11:06:28.686Z,9.45
2022-11-04T11:09:00.200Z,9.47
2022-11-04T11:12:48.708Z,9.48
2022-11-04T11:15:01.538Z,9.52
2022-11-04T11:17:34.459Z,9.54
2022-11-04T11:20:22.386Z,9.57
2022-11-04T11:22:50.413Z,9.59
2022-11-04T11:25:29.833Z,9.61
2022-11-04T11:28:02.576Z,9.62
2022-11-04T11:30:32.080Z,9.63
2022-11-04T11:33:07.257Z,9.64
2022-11-04T11:35:42.133Z,9.65
2022-11-04T11:38:21.386Z,9.63
2022-11-04T11:41:18.292Z,9.62
2022-11-04T11:43:35.629Z,9.58
2022-11-04T11:46:03.335Z,9.61
2022-11-04T11:48:43.727Z,9.60
2022-11-04T11:51:14.136Z,9.60
2022-11-04T11:53:45.753Z,9.57
2022-11-04T11:56:23.894Z,9.53
2022-11-04T12:02:07.323Z,9.49
2022-11-04T12:11:00.839Z,9.52
2022-11-04T12:13:30.695Z,9.54
2022-11-04T12:16:13.433Z,9.53
2022-11-04T12:18:52.552Z,9.52
2022-11-04T12:21:33.300Z,9.52
2022-11-04T12:24:02.315Z,9.46
2022-11-04T12:26:48.129Z,9.41
2022-11-04T12:29:27.800Z,9.41
2022-11-04T12:32:20.927Z,9.41
2022-11-04T12:35:11.747Z,9.39
2022-11-04T12:38:11.468Z,9.36
2022-11-04T12:41:18.788Z,9.34
2022-11-04T12:43:58.937Z,9.35
2022-11-04T12:46:32.520Z,9.35
2022-11-04T12:49:07.390Z,9.35
2022-11-04T12:51:47.288Z,9.35
2022-11-04T12:54:52.740Z,9.31
2022-11-04T12:57:46.908Z,9.29
2022-11-04T13:00:14.440Z,9.25
2022-11-04T13:02:54.758Z,9.22
2022-11-04T13:05:21.776Z,9.22
2022-11-04T13:08:14.664Z,9.25
2022-11-04T13:10:53.420Z,9.22
2022-11-04T13:13:31.276Z,9.26
2022-11-04T13:15:58.743Z,9.28
2022-11-04T13:18:26.665Z,9.30
2022-11-04T13:20:59.318Z,9.30
2022-11-04T13:23:36.154Z,9.30
2022-11-04T13:26:04.039Z,9.28
2022-11-04T13:28:30.732Z,9.27
2022-11-04T13:31:03.340Z,9.26
2022-11-04T13:33:51.788Z,9.22
2022-11-04T13:36:33.719Z,9.16
2022-11-04T13:39:06.082Z,9.10
2022-11-04T13:41:51.700Z,9.04
2022-11-04T13:44:26.791Z,9.00
2022-11-04T13:46:55.716Z,8.98
2022-11-04T13:49:30.544Z,8.96
2022-11-04T13:52:08.248Z,8.96
2022-11-04T13:54:57.412Z,8.96
2022-11-04T13:57:25.965Z,8.93
2022-11-04T14:00:10.766Z,8.92
2022-11-04T14:02:47.758Z,8.88
2022-11-04T14:05:29.919Z,8.87
2022-11-04T14:08:00.896Z,8.89
2022-11-04T14:10:44.206Z,8.91
2022-11-04T14:13:34.135Z,8.92
2022-11-04T14:16:07.407Z,8.93
2022-11-04T14:18:35.694Z,8.93
2022-11-04T14:21:15.649Z,8.92
2022-11-04T14:23:44.094Z,8.85
2022-11-04T14:26:12.144Z,8.77
2022-11-04T14:28:38.965Z,8.73
2022-11-04T14:31:06.403Z,8.70
2022-11-04T14:33:53.689Z,8.68
2022-11-04T14:36:20.698Z,8.67
2022-11-04T14:38:57.982Z,8.65
2022-11-04T14:41:30.814Z,8.62
2022-11-04T14:44:00.912Z,8.60
2022-11-04T14:46:34.249Z,8.60
2022-11-04T14:49:03.626Z,8.55
2022-11-04T14:51:31.893Z,8.57
2022-11-04T14:54:18.951Z,8.57
2022-11-04T14:56:47.013Z,8.55
2022-11-04T14:59:21.551Z,8.53
2022-11-04T15:01:49.348Z,8.54
2022-11-04T15:04:30.888Z,8.55
2022-11-04T15:07:01.272Z,8.55
2022-11-04T15:09:41.422Z,8.53
2022-11-04T15:12:31.098Z,8.57
2022-11-04T15:14:58.007Z,8.58
2022-11-04T15:17:26.832Z,8.59
2022-11-04T15:19:54.476Z,8.61
2022-11-04T15:22:22.220Z,8.62
2022-11-04T15:24:50.978Z,8.64
2022-11-04T15:27:20.856Z,8.67
2022-11-04T15:29:58.994Z,8.65
2022-11-04T15:32:26.005Z,8.65
2022-11-04T15:34:53.429Z,8.63
2022-11-04T15:37:20.345Z,8.65
2022-11-04T15:39:48.328Z,8.63
2022-11-04T15:42:40.326Z,8.63
2022-11-04T15:45:27.205Z,8.63
2022-11-04T15:48:25.845Z,8.64
2022-11-04T15:51:19.674Z,8.68
2022-11-04T15:53:48.045Z,8.70
2022-11-04T15:56:16.535Z,8.73
2022-11-04T15:58:44.190Z,8.75
2022-11-04T16:01:14.904Z,8.78
2022-11-04T16:03:51.106Z,8.81
2022-11-04T16:06:17.889Z,8.84
2022-11-04T16:08:48.539Z,8.85
2022-11-04T16:11:19.580Z,8.87
2022-11-04T16:13:46.775Z,8.90
2022-11-04T16:16:19.523Z,8.91
2022-11-04T16:18:51.838Z,8.92
2022-11-04T16:21:37.182Z,8.93
2022-11-04T16:24:09.494Z,8.93
2022-11-04T16:26:41.237Z,8.93
2022-11-04T16:29:09.879Z,8.94
2022-11-04T16:31:36.962Z,8.94
2022-11-04T16:34:03.864Z,8.95
2022-11-04T16:36:35.331Z,8.96
2022-11-04T16:39:04.552Z,8.96
2022-11-04T16:41:33.630Z,8.96
2022-11-04T16:44:00.356Z,8.95
2022-11-04T16:46:27.043Z,8.95
2022-11-04T16:48:54.170Z,8.95
2022-11-04T16:51:21.926Z,8.94
2022-11-04T16:53:50.231Z,8.85
2022-11-04T16:56:17.805Z,8.93
2022-11-04T16:58:44.866Z,8.91
2022-11-04T17:01:13.231Z,8.90
2022-11-04T17:03:40.883Z,8.89
2022-11-04T17:06:07.941Z,8.89
2022-11-04T17:08:34.668Z,8.90
2022-11-04T17:11:01.420Z,8.90
2022-11-04T17:13:33.457Z,8.90
2022-11-04T17:16:02.940Z,8.89
2022-11-04T17:18:33.437Z,8.88
2022-11-04T17:21:01.402Z,8.85
2022-11-04T17:23:28.197Z,8.82
2022-11-04T17:25:54.788Z,8.81
2022-11-04T17:28:21.600Z,8.79
2022-11-04T17:30:48.261Z,8.80
2022-11-04T17:33:15.696Z,8.80
2022-11-04T17:35:43.310Z,8.80
2022-11-04T17:38:10.994Z,8.81
2022-11-04T17:40:57.951Z,8.82
2022-11-04T17:43:43.844Z,8.82
2022-11-04T17:46:29.615Z,8.82
2022-11-04T17:48:56.312Z,8.83
2022-11-04T17:51:23.156Z,8.83
2022-11-04T17:53:49.879Z,8.84
2022-11-04T17:56:20.382Z,8.84
2022-11-04T17:58:47.615Z,8.84
2022-11-04T18:01:15.870Z,8.84
2022-11-04T18:03:42.847Z,8.83
2022-11-04T18:06:10.033Z,8.82
2022-11-04T18:08:36.757Z,8.80
2022-11-04T18:11:04.140Z,8.79
2022-11-04T18:13:31.023Z,8.77
2022-11-04T18:15:57.790Z,8.77
2022-11-04T18:18:24.439Z,8.77
2022-11-04T18:20:51.134Z,8.77
2022-11-04T18:23:18.144Z,8.77
2022-11-04T18:25:50.454Z,8.76
2022-11-04T18:28:17.443Z,8.70
2022-11-04T18:30:44.180Z,8.62
2022-11-04T18:34:11.493Z,8.59
2022-11-04T18:36:38.541Z,8.57
2022-11-04T18:39:09.195Z,8.58
2022-11-04T18:41:36.231Z,8.57
2022-11-04T18:44:03.175Z,8.55
2022-11-04T18:46:29.929Z,8.59
2022-11-04T18:48:56.764Z,8.58
2022-11-04T18:51:23.558Z,8.59
2022-11-04T18:53:50.690Z,8.60
2022-11-04T18:56:19.158Z,8.60
2022-11-04T18:58:46.174Z,8.61
2022-11-04T19:01:15.283Z,8.61
2022-11-04T19:03:42.239Z,8.61
2022-11-04T19:06:09.554Z,8.60
2022-11-04T19:08:36.345Z,8.60
2022-11-04T19:11:08.933Z,8.59
2022-11-04T19:13:35.702Z,8.60
2022-11-04T19:16:06.227Z,8.60
2022-11-04T19:18:33.076Z,8.59
2022-11-04T19:21:03.808Z,8.57
2022-11-04T19:23:32.212Z,8.56
2022-11-04T19:26:02.154Z,8.54
2022-11-04T19:28:44.526Z,8.52
2022-11-04T19:31:15.738Z,8.49
2022-11-04T19:33:42.900Z,8.47
2022-11-04T19:36:10.463Z,8.46
2022-11-04T19:38:37.721Z,8.44
2022-11-04T19:41:05.927Z,8.42
2022-11-04T19:43:32.681Z,8.44
2022-11-04T19:46:04.064Z,8.45
2022-11-04T19:48:31.488Z,8.41
2022-11-04T19:50:58.366Z,8.43
2022-11-04T19:53:25.149Z,8.43
2022-11-04T19:55:53.331Z,8.42
2022-11-04T19:58:20.149Z,8.41
2022-11-04T20:00:47.215Z,8.39
2022-11-04T20:03:14.533Z,8.35
2022-11-04T20:05:42.324Z,8.23
2022-11-04T20:08:09.640Z,8.19
2022-11-04T20:10:37.899Z,8.19
2022-11-04T20:13:23.048Z,8.17
2022-11-04T20:15:49.935Z,8.17
2022-11-04T20:18:16.638Z,8.18
2022-11-04T20:20:43.511Z,8.18
2022-11-04T20:23:10.456Z,8.18
2022-11-04T20:25:37.115Z,8.16
2022-11-04T20:28:04.024Z,8.16
2022-11-04T20:30:30.797Z,8.17
2022-11-04T20:32:57.451Z,8.19
2022-11-04T20:35:24.162Z,8.19
2022-11-04T20:37:50.807Z,8.20
2022-11-04T20:40:17.686Z,8.20
2022-11-04T20:42:47.899Z,8.18
2022-11-04T20:45:15.925Z,8.16
2022-11-04T20:47:42.706Z,8.15
2022-11-04T20:50:09.807Z,8.16
2022-11-04T20:52:37.261Z,8.16
2022-11-04T20:55:07.376Z,8.15
2022-11-04T20:57:34.479Z,8.14
2022-11-04T21:00:01.224Z,8.13
2022-11-04T21:02:28.234Z,8.12
2022-11-04T21:04:55.148Z,8.11
2022-11-04T21:07:24.160Z,8.08
2022-11-04T21:09:51.361Z,8.04
2022-11-04T21:12:19.193Z,8.00
2022-11-04T21:14:46.081Z,7.96
2022-11-04T21:17:12.953Z,7.91
2022-11-04T21:19:39.695Z,7.86
2022-11-04T21:22:06.456Z,7.81
2022-11-04T21:24:39.003Z,7.74
2022-11-04T21:27:06.304Z,7.67
2022-11-04T21:29:33.052Z,7.59
2022-11-04T21:31:59.769Z,7.52
2022-11-04T21:34:26.513Z,7.45
2022-11-04T21:36:53.419Z,7.36
2022-11-04T21:39:20.326Z,7.26
2022-11-04T21:41:47.088Z,7.16
2022-11-04T21:44:13.947Z,7.06
2022-11-04T21:46:40.633Z,6.97
2022-11-04T21:49:07.532Z,6.84
2022-11-04T21:51:34.794Z,6.79
2022-11-04T21:54:04.897Z,6.62
2022-11-04T21:56:34.612Z,6.57
2022-11-04T21:59:01.680Z,6.49
2022-11-04T22:01:29.187Z,6.43
2022-11-04T22:03:59.415Z,6.36
2022-11-04T22:06:33.184Z,6.31
2022-11-04T22:09:01.353Z,6.27
2022-11-04T22:11:29.965Z,6.22
2022-11-04T22:14:00.389Z,6.19
2022-11-04T22:16:28.768Z,6.15
2022-11-04T22:18:56.913Z,6.05
2022-11-04T22:21:24.624Z,5.94
2022-11-04T22:23:51.591Z,5.85
2022-11-04T22:26:24.293Z,5.84
2022-11-04T22:28:51.378Z,5.77
2022-11-04T22:31:26.268Z,5.73
2022-11-04T22:33:53.133Z,5.70
2022-11-04T22:36:20.189Z,5.63
2022-11-04T22:38:47.071Z,5.69
2022-11-04T22:41:14.806Z,5.68
2022-11-04T22:43:41.559Z,5.66
2022-11-04T22:46:12.517Z,5.62
2022-11-04T22:48:39.210Z,5.60
2022-11-04T22:51:07.047Z,5.60
2022-11-04T22:53:33.800Z,5.62
2022-11-04T22:56:00.677Z,5.63
2022-11-04T22:58:28.019Z,5.62
2022-11-04T23:00:56.648Z,5.57
2022-11-04T23:03:23.554Z,5.51
2022-11-04T23:05:56.730Z,5.47
2022-11-04T23:08:24.293Z,5.44
2022-11-04T23:11:10.227Z,5.42
2022-11-04T23:13:55.719Z,5.38
2022-11-04T23:16:41.220Z,5.32
2022-11-04T23:19:07.932Z,5.25
2022-11-04T23:21:53.281Z,5.20
2022-11-04T23:24:38.705Z,5.17
2022-11-04T23:27:05.463Z,5.10
2022-11-04T23:29:50.914Z,5.00
2022-11-04T23:32:19.244Z,4.91
2022-11-04T23:35:06.493Z,4.88
2022-11-04T23:37:33.271Z,4.84
2022-11-04T23:39:59.996Z,4.80
2022-11-04T23:42:26.714Z,4.78
2022-11-04T23:45:12.825Z,4.77
2022-11-04T23:48:04.888Z,4.74
2022-11-04T23:50:51.787Z,4.71
2022-11-04T23:53:38.028Z,4.68
2022-11-04T23:56:24.049Z,4.62
2022-11-04T23:59:09.577Z,4.57
